Time;durP1;ratioP1;P1;durP2;ratioP2;P2;SDS_P1;SDS_P2;PMS_P1;PMS_P2;Temp;Humidity;BMP_temperature;BMP_pressure;BME280_temperature;BME280_humidity;BME280_pressure;Samples;Min_cycle;Max_cycle;Signal;HPM_P1;HPM_P2
2022/12/11 00:01:22;;;;;;;36.63;23.60;;;8.40;96.10;;;;;;5064846;28;20213;-63
2022/12/11 00:03:50;;;;;;;40.10;25.13;;;8.40;96.10;;;;;;5063475;28;20225;-64
2022/12/11 00:06:19;;;;;;;41.00;24.37;;;8.30;96.10;;;;;;5067041;28;20204;-63
2022/12/11 00:08:47;;;;;;;38.13;23.80;;;8.30;96.20;;;;;;5060575;28;20230;-63
2022/12/11 00:11:15;;;;;;;39.93;23.53;;;8.30;96.30;;;;;;5058977;28;20198;-63
2022/12/11 00:13:42;;;;;;;34.93;22.97;;;8.30;96.40;;;;;;5061249;28;20599;-64
2022/12/11 00:16:10;;;;;;;37.07;24.03;;;8.30;96.40;;;;;;5063683;28;20201;-64
2022/12/11 00:18:37;;;;;;;40.73;24.63;;;8.30;96.50;;;;;;5049421;28;20210;-64
2022/12/11 00:21:06;;;;;;;39.00;24.57;;;8.30;96.50;;;;;;5061779;28;20209;-63
2022/12/11 00:23:34;;;;;;;39.33;24.50;;;8.30;96.60;;;;;;5060751;28;20298;-64
2022/12/11 00:26:06;;;;;;;34.23;22.50;;;8.30;96.60;;;;;;5059788;28;20194;-63
2022/12/11 00:28:33;;;;;;;43.03;25.07;;;8.40;96.60;;;;;;5071521;28;20851;-64
2022/12/11 00:31:05;;;;;;;38.30;22.57;;;8.40;96.60;;;;;;5053858;28;20199;-64
2022/12/11 00:33:32;;;;;;;37.03;24.47;;;8.30;96.60;;;;;;5064324;28;20199;-64
2022/12/11 00:35:59;;;;;;;44.60;25.37;;;8.30;96.60;;;;;;5065804;28;20199;-64
2022/12/11 00:38:27;;;;;;;42.17;25.77;;;8.30;96.60;;;;;;5064600;28;20202;-64
2022/12/11 00:40:58;;;;;;;45.27;26.53;;;8.30;96.70;;;;;;5060019;28;20644;-63
2022/12/11 00:43:25;;;;;;;45.63;26.83;;;8.30;96.70;;;;;;5061717;28;20195;-64
2022/12/11 00:45:52;;;;;;;43.40;26.40;;;8.30;96.70;;;;;;5045980;28;20221;-64
2022/12/11 00:48:19;;;;;;;44.50;26.20;;;8.30;96.70;;;;;;5064988;28;20213;-64
2022/12/11 00:50:46;;;;;;;44.07;26.23;;;8.30;96.70;;;;;;5066448;28;20203;-64
2022/12/11 00:53:13;;;;;;;40.20;25.53;;;8.30;96.80;;;;;;5065129;28;20446;-64
2022/12/11 00:55:42;;;;;;;44.50;28.17;;;8.20;96.80;;;;;;5065528;28;20202;-63
2022/12/11 00:58:10;;;;;;;46.70;28.03;;;8.20;96.80;;;;;;5064152;28;20647;-64
2022/12/11 01:00:38;;;;;;;44.27;26.00;;;8.20;96.90;;;;;;5062974;28;20333;-63
2022/12/11 01:03:06;;;;;;;47.57;28.60;;;8.20;96.90;;;;;;5060236;28;20649;-63
2022/12/11 01:05:34;;;;;;;47.83;28.53;;;8.10;97.00;;;;;;5063256;28;20609;-63
2022/12/11 01:08:02;;;;;;;51.73;29.27;;;8.10;97.00;;;;;;5067310;28;20203;-63
2022/12/11 01:10:29;;;;;;;47.87;28.27;;;8.10;97.10;;;;;;5065463;28;20267;-64
2022/12/11 01:13:03;;;;;;;49.60;29.40;;;8.10;97.20;;;;;;5063924;28;20710;-63
2022/12/11 01:15:34;;;;;;;49.33;30.00;;;8.10;97.30;;;;;;5060647;28;20203;-63
2022/12/11 01:18:08;;;;;;;46.47;28.67;;;8.00;97.30;;;;;;5064791;28;20196;-63
2022/12/11 01:20:38;;;;;;;48.40;29.47;;;8.00;97.40;;;;;;5057851;28;20201;-63
2022/12/11 01:23:05;;;;;;;46.93;27.83;;;8.00;97.50;;;;;;5061414;28;20195;-63
2022/12/11 01:25:36;;;;;;;49.53;28.70;;;8.00;97.60;;;;;;5062653;28;20233;-63
2022/12/11 01:28:05;;;;;;;47.90;27.63;;;8.00;97.60;;;;;;5065654;28;20198;-63
2022/12/11 01:30:32;;;;;;;46.17;28.33;;;8.00;97.60;;;;;;5060957;28;20252;-63
2022/12/11 01:33:00;;;;;;;45.70;27.80;;;8.00;97.50;;;;;;5058619;28;20645;-64
2022/12/11 01:35:27;;;;;;;49.30;28.37;;;8.00;97.50;;;;;;5062916;28;20223;-63
2022/12/11 01:37:54;;;;;;;50.13;28.57;;;8.00;97.60;;;;;;5067969;28;20506;-63
2022/12/11 01:40:22;;;;;;;50.97;29.07;;;8.00;97.60;;;;;;5067137;28;20934;-63
2022/12/11 01:42:49;;;;;;;46.47;27.83;;;8.00;97.50;;;;;;5061915;28;20521;-63
2022/12/11 01:45:35;;;;;;;47.03;28.47;;;8.00;97.60;;;;;;5064510;28;20201;-64
2022/12/11 01:48:22;;;;;;;47.57;27.27;;;8.00;97.70;;;;;;5061155;28;20225;-63
2022/12/11 01:51:01;;;;;;;47.20;27.97;;;7.90;97.70;;;;;;5060827;28;20215;-63
2022/12/11 01:53:39;;;;;;;46.33;28.20;;;7.90;97.70;;;;;;5059614;28;20273;-63
2022/12/11 01:56:07;;;;;;;47.33;28.30;;;7.90;97.80;;;;;;5064527;28;20292;-64
2022/12/11 01:58:40;;;;;;;43.30;25.60;;;8.00;97.70;;;;;;5063476;28;20220;-64
2022/12/11 02:01:10;;;;;;;43.27;25.90;;;7.90;97.60;;;;;;5065469;28;20196;-63
2022/12/11 02:03:38;;;;;;;42.63;25.90;;;7.90;97.50;;;;;;5065038;28;20228;-63
2022/12/11 02:06:05;;;;;;;38.60;24.00;;;7.80;97.60;;;;;;5068258;28;20197;-63
2022/12/11 02:08:32;;;;;;;45.50;24.50;;;7.80;97.70;;;;;;5054659;28;20198;-63
2022/12/11 02:11:15;;;;;;;45.07;25.57;;;7.80;97.70;;;;;;5062125;28;20209;-63
2022/12/11 02:14:18;;;;;;;40.00;24.23;;;7.80;97.80;;;;;;5060559;28;20205;-63
2022/12/11 02:17:05;;;;;;;38.87;25.23;;;7.70;97.80;;;;;;4979878;28;20267;-63
2022/12/11 02:19:44;;;;;;;41.90;25.77;;;7.70;97.90;;;;;;5057074;28;20250;-63
2022/12/11 02:22:35;;;;;;;41.90;26.03;;;7.70;98.20;;;;;;5059353;28;20211;-63
2022/12/11 02:25:21;;;;;;;43.53;26.03;;;7.70;98.00;;;;;;5061362;28;20202;-63
2022/12/11 02:28:17;;;;;;;48.57;27.13;;;7.70;98.10;;;;;;5051616;28;20219;-64
2022/12/11 02:30:52;;;;;;;45.77;26.93;;;7.70;98.20;;;;;;5059555;28;20567;-63
2022/12/11 02:33:33;;;;;;;44.87;25.30;;;7.80;98.20;;;;;;5060486;28;20217;-63
2022/12/11 02:36:04;;;;;;;45.87;26.77;;;7.80;98.20;;;;;;5062753;28;20579;-63
2022/12/11 02:38:35;;;;;;;42.80;26.10;;;7.80;98.20;;;;;;5058269;28;20203;-63
2022/12/11 02:41:06;;;;;;;42.47;25.77;;;7.80;98.20;;;;;;5058942;28;20244;-63
2022/12/11 02:43:34;;;;;;;44.80;25.83;;;7.90;98.20;;;;;;5057758;28;20202;-64
2022/12/11 02:46:05;;;;;;;42.30;25.57;;;7.90;98.30;;;;;;5060541;28;20217;-63
2022/12/11 02:48:33;;;;;;;45.67;25.83;;;7.90;98.30;;;;;;5062765;28;20583;-64
2022/12/11 02:51:03;;;;;;;43.70;25.00;;;7.90;98.30;;;;;;5066647;28;20282;-63
2022/12/11 02:53:34;;;;;;;35.70;22.77;;;8.00;98.30;;;;;;5061809;28;20628;-64
2022/12/11 02:56:15;;;;;;;40.50;23.93;;;8.00;98.20;;;;;;5061829;28;20206;-63
2022/12/11 02:58:46;;;;;;;42.70;25.17;;;8.00;98.20;;;;;;5064199;28;20198;-64
2022/12/11 03:01:14;;;;;;;38.80;23.93;;;8.10;98.20;;;;;;5061671;28;20215;-63
2022/12/11 03:03:41;;;;;;;39.93;24.23;;;8.00;98.20;;;;;;5060366;28;20240;-63
2022/12/11 03:06:15;;;;;;;36.43;22.77;;;8.10;98.20;;;;;;5062002;28;20204;-64
2022/12/11 03:08:42;;;;;;;38.80;22.33;;;8.10;98.10;;;;;;5049342;28;20214;-63
2022/12/11 03:11:12;;;;;;;37.70;23.43;;;8.10;98.10;;;;;;5066797;28;20282;-63
2022/12/11 03:13:41;;;;;;;35.73;22.27;;;8.10;98.10;;;;;;5067846;28;20632;-63
2022/12/11 03:16:18;;;;;;;37.97;23.10;;;8.10;98.10;;;;;;5070117;28;20194;-63
2022/12/11 03:19:17;;;;;;;36.47;22.37;;;8.10;98.10;;;;;;5059349;28;20259;-63
2022/12/11 03:21:53;;;;;;;35.60;22.73;;;8.10;98.10;;;;;;4977165;28;20209;-63
2022/12/11 03:24:31;;;;;;;40.23;24.17;;;8.10;98.10;;;;;;5067613;28;20624;-63
2022/12/11 03:27:05;;;;;;;40.57;23.27;;;8.20;98.10;;;;;;5065744;28;20277;-64
2022/12/11 03:29:43;;;;;;;37.77;23.87;;;8.20;98.10;;;;;;5047040;28;20306;-63
2022/12/11 03:32:18;;;;;;;38.40;23.33;;;8.10;98.10;;;;;;5062511;28;20538;-63
2022/12/11 03:34:51;;;;;;;41.20;24.23;;;8.20;98.10;;;;;;5061737;28;20636;-63
2022/12/11 03:37:27;;;;;;;35.73;22.63;;;8.10;98.00;;;;;;5068019;28;20197;-63
2022/12/11 03:40:00;;;;;;;36.07;22.83;;;8.10;98.00;;;;;;5067514;28;20202;-63
2022/12/11 03:42:27;;;;;;;43.03;23.50;;;8.10;98.00;;;;;;5063135;28;20198;-63
2022/12/11 03:44:57;;;;;;;39.33;22.97;;;8.10;98.00;;;;;;5066345;28;20582;-63
2022/12/11 03:47:27;;;;;;;39.73;23.43;;;8.20;98.00;;;;;;5066038;28;20200;-63
2022/12/11 03:49:57;;;;;;;43.17;24.77;;;8.10;97.80;;;;;;5043567;28;20230;-63
2022/12/11 03:52:27;;;;;;;38.80;24.13;;;8.10;97.80;;;;;;5063708;28;20195;-63
2022/12/11 03:54:58;;;;;;;37.87;24.33;;;8.10;97.80;;;;;;5058688;28;20199;-63
2022/12/11 03:57:29;;;;;;;38.30;23.20;;;8.10;97.90;;;;;;5069035;28;20207;-64
2022/12/11 03:59:57;;;;;;;43.30;24.47;;;8.10;97.80;;;;;;5065976;28;20241;-63
2022/12/11 04:02:24;;;;;;;38.20;23.03;;;8.10;97.80;;;;;;5068157;28;20201;-63
2022/12/11 04:04:51;;;;;;;39.43;23.30;;;8.20;97.70;;;;;;5067694;28;20201;-63
2022/12/11 04:07:18;;;;;;;35.20;22.27;;;8.10;97.50;;;;;;5070264;28;20224;-63
2022/12/11 04:09:45;;;;;;;37.47;22.67;;;8.10;97.40;;;;;;5062041;28;20215;-63
2022/12/11 04:12:12;;;;;;;38.47;23.17;;;8.10;97.40;;;;;;5063062;28;20186;-63
2022/12/11 04:25:42;;;;;;;31.27;20.63;;;8.00;97.20;;;;;;5062247;28;20209;-63
2022/12/11 04:28:09;;;;;;;32.57;20.97;;;7.90;97.20;;;;;;5062842;28;20219;-63
2022/12/11 04:30:36;;;;;;;32.30;21.17;;;7.90;97.10;;;;;;5058266;28;20217;-63
2022/12/11 04:33:04;;;;;;;30.30;20.00;;;7.90;97.20;;;;;;5063632;28;20213;-63
2022/12/11 04:35:31;;;;;;;32.13;21.50;;;7.90;97.20;;;;;;5062288;28;20714;-63
2022/12/11 04:37:58;;;;;;;32.77;20.77;;;7.90;97.10;;;;;;5063742;28;20218;-63
2022/12/11 04:40:25;;;;;;;28.57;19.47;;;7.90;97.00;;;;;;5063915;28;20228;-63
2022/12/11 04:42:52;;;;;;;32.60;20.23;;;7.90;97.00;;;;;;5060816;28;20217;-63
2022/12/11 04:45:19;;;;;;;36.87;21.63;;;7.90;97.00;;;;;;5050042;28;20278;-63
2022/12/11 04:47:46;;;;;;;32.07;20.87;;;7.90;97.10;;;;;;5064325;28;20229;-63
2022/12/11 04:50:14;;;;;;;34.77;22.10;;;7.80;97.20;;;;;;5063971;28;20590;-64
2022/12/11 04:52:42;;;;;;;33.73;21.77;;;7.80;97.20;;;;;;5063546;28;20194;-63
2022/12/11 04:55:10;;;;;;;34.30;21.33;;;7.80;97.20;;;;;;5064803;28;20640;-63
2022/12/11 04:57:38;;;;;;;38.27;22.60;;;7.80;97.30;;;;;;5068671;28;20229;-63
2022/12/11 05:00:08;;;;;;;32.57;20.67;;;7.90;97.30;;;;;;5058061;28;20245;-63
2022/12/11 05:02:36;;;;;;;33.57;21.83;;;7.90;97.30;;;;;;5062238;28;20547;-63
2022/12/11 05:05:05;;;;;;;36.40;22.03;;;7.90;97.30;;;;;;5067924;28;20653;-63
2022/12/11 05:07:32;;;;;;;36.73;21.87;;;7.80;97.20;;;;;;5068091;28;20190;-63
2022/12/11 05:09:59;;;;;;;37.20;23.23;;;7.80;97.20;;;;;;5062511;28;20218;-63
2022/12/11 05:12:26;;;;;;;38.87;22.70;;;7.80;97.20;;;;;;5064972;28;20198;-63
2022/12/11 05:14:53;;;;;;;36.80;23.40;;;7.80;97.30;;;;;;5068027;28;20280;-63
2022/12/11 05:17:21;;;;;;;37.40;22.00;;;7.80;97.40;;;;;;5052403;28;20205;-63
2022/12/11 05:19:50;;;;;;;39.47;23.23;;;7.80;97.40;;;;;;5052566;28;20205;-63
2022/12/11 05:22:17;;;;;;;40.20;25.20;;;7.70;97.50;;;;;;5060931;28;20591;-63
2022/12/11 05:24:45;;;;;;;43.53;25.90;;;7.70;97.60;;;;;;5060714;28;20655;-64
2022/12/11 05:27:12;;;;;;;42.83;25.90;;;7.70;97.70;;;;;;5064436;28;20208;-63
2022/12/11 05:29:39;;;;;;;39.77;24.47;;;7.60;97.70;;;;;;5063319;28;20198;-63
2022/12/11 05:32:06;;;;;;;41.80;26.43;;;7.60;97.80;;;;;;5062307;28;20195;-63
2022/12/11 05:34:33;;;;;;;37.97;25.00;;;7.60;97.90;;;;;;5063233;28;20563;-63
2022/12/11 05:37:01;;;;;;;39.07;25.43;;;7.60;97.90;;;;;;5062195;28;20212;-63
2022/12/11 05:39:28;;;;;;;38.70;23.37;;;7.60;98.00;;;;;;5048876;28;20209;-63
2022/12/11 05:41:55;;;;;;;38.13;24.83;;;7.60;98.00;;;;;;5063168;28;20237;-63
2022/12/11 05:44:22;;;;;;;36.50;22.73;;;7.50;97.90;;;;;;5064528;28;20193;-63
2022/12/11 05:46:49;;;;;;;37.63;23.33;;;7.50;97.90;;;;;;5063984;28;20518;-63
2022/12/11 05:49:16;;;;;;;38.53;24.03;;;7.50;97.90;;;;;;5065206;28;20255;-63
2022/12/11 05:51:46;;;;;;;37.13;22.33;;;7.50;97.90;;;;;;5059876;28;20245;-63
2022/12/11 05:54:13;;;;;;;37.27;22.93;;;7.40;97.90;;;;;;5062235;28;20202;-63
2022/12/11 05:56:40;;;;;;;39.43;23.00;;;7.40;98.00;;;;;;5060358;28;20206;-64
2022/12/11 05:59:07;;;;;;;36.13;22.40;;;7.40;98.10;;;;;;5063118;28;20245;-63
2022/12/11 06:01:40;;;;;;;32.60;20.07;;;7.40;98.00;;;;;;5060777;28;20201;-63
2022/12/11 06:04:10;;;;;;;36.80;22.90;;;7.40;97.70;;;;;;5065322;28;20194;-63
2022/12/11 06:06:39;;;;;;;34.90;20.90;;;7.30;97.40;;;;;;5066244;28;21140;-63
2022/12/11 06:09:06;;;;;;;32.40;20.33;;;7.30;97.20;;;;;;5062426;28;20213;-63
2022/12/11 06:11:34;;;;;;;29.40;19.40;;;7.30;97.10;;;;;;5047936;28;20221;-63
2022/12/11 06:14:02;;;;;;;28.87;18.37;;;7.20;96.70;;;;;;5063169;28;20193;-63
2022/12/11 06:16:30;;;;;;;30.07;18.87;;;7.20;95.90;;;;;;5063748;28;20201;-63
2022/12/11 06:18:57;;;;;;;30.30;18.63;;;7.20;95.60;;;;;;5051542;28;20626;-63
2022/12/11 06:21:28;;;;;;;27.13;17.47;;;7.20;95.80;;;;;;5064622;28;20210;-63
2022/12/11 06:23:57;;;;;;;27.47;16.43;;;7.10;95.10;;;;;;5062971;28;20683;-63
2022/12/11 06:26:25;;;;;;;25.57;15.60;;;7.10;94.80;;;;;;5067160;28;20201;-63
2022/12/11 06:28:52;;;;;;;28.77;17.17;;;7.00;94.50;;;;;;5061447;28;20546;-63
2022/12/11 06:31:20;;;;;;;26.67;17.53;;;7.00;94.30;;;;;;5058445;28;20217;-63
2022/12/11 06:33:47;;;;;;;30.93;16.27;;;7.00;94.50;;;;;;5061321;28;20319;-63
2022/12/11 06:36:17;;;;;;;28.30;17.27;;;6.90;94.40;;;;;;5064115;28;20578;-63
2022/12/11 06:38:46;;;;;;;30.77;18.30;;;6.90;94.60;;;;;;5059906;28;20198;-63
2022/12/11 06:41:14;;;;;;;28.60;17.17;;;6.90;94.70;;;;;;5063871;28;20228;-63
2022/12/11 06:43:41;;;;;;;29.80;17.33;;;6.90;94.70;;;;;;5061867;28;20220;-63
2022/12/11 06:46:12;;;;;;;30.03;17.53;;;6.80;94.70;;;;;;5066624;28;20224;-63
2022/12/11 06:48:41;;;;;;;23.33;15.57;;;6.80;94.70;;;;;;5062757;28;20581;-63
2022/12/11 06:51:17;;;;;;;24.00;16.00;;;6.80;95.10;;;;;;5060223;28;20675;-63
2022/12/11 06:53:44;;;;;;;25.30;14.87;;;6.80;94.90;;;;;;5045914;28;20202;-63
2022/12/11 06:56:14;;;;;;;23.30;14.40;;;6.80;94.70;;;;;;5063139;28;20198;-62
2022/12/11 06:58:42;;;;;;;22.67;14.13;;;6.70;94.30;;;;;;5061772;28;20635;-63
2022/12/11 07:01:24;;;;;;;25.17;13.87;;;6.80;94.20;;;;;;5059629;28;20237;-62
2022/12/11 07:03:53;;;;;;;24.17;15.17;;;6.80;94.00;;;;;;5062553;28;20201;-63
2022/12/11 07:06:20;;;;;;;24.93;15.60;;;6.70;93.90;;;;;;5059125;28;20228;-63
2022/12/11 07:08:47;;;;;;;26.90;14.30;;;6.70;94.30;;;;;;5065064;28;20212;-64
2022/12/11 07:11:17;;;;;;;27.47;15.37;;;6.70;94.50;;;;;;5065014;28;20214;-63
2022/12/11 07:13:44;;;;;;;24.57;15.07;;;6.60;94.70;;;;;;5063289;28;20627;-63
2022/12/11 07:16:13;;;;;;;28.40;15.77;;;6.60;95.10;;;;;;5060511;28;20193;-63
2022/12/11 07:18:45;;;;;;;23.33;14.00;;;6.60;95.50;;;;;;5063454;28;20641;-63
2022/12/11 07:21:13;;;;;;;23.17;14.87;;;6.60;95.70;;;;;;5048921;28;20212;-63
2022/12/11 07:23:41;;;;;;;22.40;15.10;;;6.60;95.80;;;;;;5060465;28;20219;-62
2022/12/11 07:26:11;;;;;;;23.27;13.70;;;6.60;96.10;;;;;;5047592;28;20210;-62
2022/12/11 07:28:38;;;;;;;23.40;14.33;;;6.60;96.40;;;;;;5062793;28;20514;-63
2022/12/11 07:31:06;;;;;;;23.90;15.10;;;6.70;96.60;;;;;;5064316;28;20244;-63
2022/12/11 07:33:34;;;;;;;21.37;13.50;;;6.70;96.70;;;;;;5064145;28;20201;-62
2022/12/11 07:36:03;;;;;;;23.23;13.87;;;6.70;96.90;;;;;;5064469;28;20205;-63
2022/12/11 07:38:31;;;;;;;23.67;15.07;;;6.70;97.00;;;;;;5060698;28;20201;-63
2022/12/11 07:41:04;;;;;;;25.97;14.60;;;6.80;97.20;;;;;;5060360;28;20628;-63
2022/12/11 07:43:32;;;;;;;26.20;16.30;;;6.80;97.30;;;;;;5059498;28;20272;-63
2022/12/11 07:46:04;;;;;;;29.23;17.47;;;6.80;97.50;;;;;;5062958;28;20256;-63
2022/12/11 07:48:33;;;;;;;27.13;15.80;;;6.90;97.50;;;;;;5060127;28;20205;-63
2022/12/11 07:51:13;;;;;;;23.30;13.20;;;6.90;97.60;;;;;;5059226;28;20206;-63
2022/12/11 07:53:44;;;;;;;12.73;7.47;;;7.00;97.80;;;;;;5054311;28;20305;-63
2022/12/11 07:56:11;;;;;;;8.30;4.93;;;7.00;97.90;;;;;;5062388;28;20201;-63
2022/12/11 07:58:38;;;;;;;3.53;2.53;;;7.00;98.00;;;;;;5068583;28;20205;-63
2022/12/11 08:01:14;;;;;;;2.83;1.93;;;7.10;98.20;;;;;;5060313;28;20249;-63
2022/12/11 08:03:42;;;;;;;3.10;1.40;;;7.10;98.40;;;;;;5052911;28;20278;-62
2022/12/11 08:06:10;;;;;;;1.30;1.03;;;7.10;98.40;;;;;;5065726;28;20243;-63
2022/12/11 08:08:38;;;;;;;1.00;1.00;;;7.20;98.40;;;;;;5062387;28;20205;-63
2022/12/11 08:11:08;;;;;;;1.53;1.20;;;7.20;98.40;;;;;;5061009;28;20230;-63
2022/12/11 08:13:35;;;;;;;1.30;1.20;;;7.20;98.40;;;;;;5063056;28;20197;-63
2022/12/11 08:16:06;;;;;;;1.00;0.90;;;7.20;98.40;;;;;;5064651;28;20648;-63
2022/12/11 08:18:35;;;;;;;1.60;1.20;;;7.20;98.40;;;;;;5068525;28;20199;-63
2022/12/11 08:21:06;;;;;;;1.87;1.37;;;7.20;98.40;;;;;;5066426;28;20212;-62
2022/12/11 08:23:34;;;;;;;1.93;1.50;;;7.20;98.40;;;;;;5065519;28;20554;-63
2022/12/11 08:26:03;;;;;;;2.50;1.40;;;7.20;98.40;;;;;;5064736;28;20201;-63
2022/12/11 08:28:31;;;;;;;1.30;1.20;;;7.20;98.40;;;;;;5025489;28;20204;-62
2022/12/11 08:30:59;;;;;;;1.23;1.13;;;7.20;98.40;;;;;;5054799;28;20218;-62
2022/12/11 08:33:26;;;;;;;1.20;1.10;;;7.10;98.40;;;;;;5062630;28;20198;-62
2022/12/11 08:35:53;;;;;;;1.33;1.23;;;7.20;98.40;;;;;;5062593;28;20262;-63
2022/12/11 08:38:20;;;;;;;1.37;1.00;;;7.20;98.30;;;;;;5066901;28;20199;-62
2022/12/11 08:40:51;;;;;;;1.60;1.13;;;7.20;98.30;;;;;;5064545;28;20220;-63
2022/12/11 08:43:18;;;;;;;1.40;1.30;;;7.20;98.30;;;;;;5064498;28;20198;-63
2022/12/11 08:45:46;;;;;;;1.30;1.20;;;7.20;98.30;;;;;;5067026;28;20497;-62
2022/12/11 08:48:13;;;;;;;1.27;1.13;;;7.30;98.20;;;;;;5057212;28;20742;-63
2022/12/11 08:50:40;;;;;;;2.00;1.50;;;7.30;98.20;;;;;;5063526;28;20243;-63
2022/12/11 08:53:07;;;;;;;1.27;1.17;;;7.30;98.00;;;;;;5059893;28;20198;-63
2022/12/11 08:55:34;;;;;;;1.43;1.33;;;7.30;97.90;;;;;;5066122;28;20210;-63
2022/12/11 08:58:01;;;;;;;1.13;1.03;;;7.30;97.80;;;;;;5066107;28;20205;-63
2022/12/11 09:00:28;;;;;;;1.50;1.37;;;7.30;97.80;;;;;;5060901;28;20244;-63
2022/12/11 09:02:55;;;;;;;1.07;0.97;;;7.40;97.70;;;;;;5063327;28;20197;-63
2022/12/11 09:05:22;;;;;;;1.30;1.20;;;7.40;97.80;;;;;;5046537;28;20201;-63
2022/12/11 09:07:49;;;;;;;2.10;1.50;;;7.40;97.70;;;;;;5064125;28;20246;-62
2022/12/11 09:10:17;;;;;;;1.70;1.60;;;7.40;97.70;;;;;;5067331;28;20194;-62
2022/12/11 09:12:44;;;;;;;2.00;1.40;;;7.40;97.70;;;;;;5064966;28;20308;-63
2022/12/11 09:15:11;;;;;;;1.50;1.40;;;7.50;97.50;;;;;;5067109;28;20198;-63
2022/12/11 09:17:39;;;;;;;1.37;1.27;;;7.50;97.40;;;;;;5057664;28;20210;-62
2022/12/11 09:20:06;;;;;;;1.67;1.50;;;7.50;97.40;;;;;;5063126;28;20206;-63
2022/12/11 09:22:33;;;;;;;1.60;1.40;;;7.50;97.40;;;;;;5062284;28;20659;-63
2022/12/11 09:25:00;;;;;;;1.63;1.37;;;7.50;97.40;;;;;;5047191;28;20628;-63
2022/12/11 09:27:28;;;;;;;1.67;1.57;;;7.50;97.30;;;;;;5064937;28;20237;-62
2022/12/11 09:29:55;;;;;;;1.70;1.60;;;7.50;97.30;;;;;;5066140;28;20266;-62
2022/12/11 09:32:22;;;;;;;1.80;1.70;;;7.50;97.30;;;;;;5064108;28;20228;-63
2022/12/11 09:34:50;;;;;;;2.17;1.60;;;7.50;97.40;;;;;;5067326;28;20613;-63
2022/12/11 09:37:17;;;;;;;7.47;3.83;;;7.50;97.50;;;;;;5068142;28;20199;-62
2022/12/11 09:39:44;;;;;;;6.23;4.00;;;7.60;97.50;;;;;;5052360;28;20191;-63
2022/12/11 09:42:26;;;;;;;8.63;5.50;;;7.50;97.40;;;;;;5061693;28;20198;-63
2022/12/11 09:44:57;;;;;;;9.30;5.63;;;7.60;97.40;;;;;;5063680;28;20209;-63
2022/12/11 09:47:32;;;;;;;8.90;5.97;;;7.60;97.40;;;;;;5064818;28;20190;-63
2022/12/11 09:50:24;;;;;;;16.53;6.87;;;7.60;97.40;;;;;;5063808;28;20200;-62
2022/12/11 09:53:12;;;;;;;10.90;6.37;;;7.60;97.40;;;;;;5062020;28;20671;-62
2022/12/11 09:55:46;;;;;;;9.07;5.53;;;7.60;97.40;;;;;;5059653;28;20208;-62
2022/12/11 09:58:35;;;;;;;6.03;3.87;;;7.60;97.50;;;;;;5060858;28;20207;-62
2022/12/11 10:01:13;;;;;;;3.70;2.50;;;7.70;97.50;;;;;;5058218;28;20233;-62
2022/12/11 10:04:18;;;;;;;2.30;2.10;;;7.70;97.60;;;;;;5064012;28;20205;-62
2022/12/11 10:06:48;;;;;;;2.13;1.80;;;7.70;97.60;;;;;;5061695;28;20213;-62
2022/12/11 10:09:35;;;;;;;2.10;1.90;;;7.70;97.60;;;;;;5059440;28;20215;-62
2022/12/11 10:12:11;;;;;;;1.37;1.27;;;7.80;97.70;;;;;;5060853;28;20223;-62
2022/12/11 10:14:59;;;;;;;1.60;1.50;;;7.80;97.80;;;;;;5066557;28;20532;-62
2022/12/11 10:17:29;;;;;;;4.00;1.47;;;7.80;97.60;;;;;;5067143;28;20570;-62
2022/12/11 10:20:00;;;;;;;2.83;1.50;;;7.80;97.60;;;;;;5064837;28;20202;-63
2022/12/11 10:22:31;;;;;;;1.80;1.70;;;7.80;97.50;;;;;;5062435;28;20201;-63
2022/12/11 10:25:05;;;;;;;1.70;1.60;;;7.80;97.60;;;;;;5062632;28;20196;-62
2022/12/11 10:27:49;;;;;;;1.50;1.40;;;7.80;97.60;;;;;;5060617;28;20203;-63
2022/12/11 10:30:18;;;;;;;1.63;1.53;;;7.80;97.50;;;;;;5059260;28;20202;-63
2022/12/11 10:32:45;;;;;;;2.10;1.90;;;7.80;97.70;;;;;;5059605;28;20568;-63
2022/12/11 10:35:51;;;;;;;2.13;1.93;;;7.90;97.80;;;;;;5059354;28;20194;-62
2022/12/11 10:38:25;;;;;;;3.40;1.90;;;7.90;97.70;;;;;;5061513;28;20233;-63
2022/12/11 10:40:56;;;;;;;2.23;2.00;;;8.00;97.50;;;;;;5065617;28;20298;-63
2022/12/11 10:43:39;;;;;;;2.23;2.03;;;8.00;97.40;;;;;;5054524;28;20193;-62
2022/12/11 10:46:14;;;;;;;1.77;1.67;;;8.00;97.40;;;;;;5052574;28;20286;-63
2022/12/11 10:48:56;;;;;;;1.93;1.60;;;8.00;97.30;;;;;;5058047;28;20198;-63
2022/12/11 10:51:36;;;;;;;2.13;1.90;;;8.10;97.30;;;;;;5060383;28;20231;-62
2022/12/11 10:54:15;;;;;;;2.70;2.20;;;8.10;97.40;;;;;;5061854;28;20621;-62
2022/12/11 10:56:47;;;;;;;2.20;2.00;;;8.10;97.40;;;;;;5061919;28;20292;-62
2022/12/11 10:59:45;;;;;;;2.40;1.67;;;8.10;97.20;;;;;;5060867;28;20277;-62
2022/12/11 11:02:34;;;;;;;1.80;1.70;;;8.00;96.70;;;;;;5043952;28;20209;-63
2022/12/11 11:05:13;;;;;;;2.13;1.93;;;8.00;96.40;;;;;;5063670;28;20252;-63
2022/12/11 11:07:40;;;;;;;2.20;1.70;;;7.90;96.40;;;;;;5064112;28;20291;-62
2022/12/11 11:10:10;;;;;;;2.97;1.80;;;7.80;96.60;;;;;;5059485;28;20207;-63
2022/12/11 11:12:43;;;;;;;1.87;1.60;;;7.80;96.90;;;;;;5061876;28;20232;-63
2022/12/11 11:15:18;;;;;;;2.00;1.73;;;7.80;97.00;;;;;;5063989;28;20213;-63
2022/12/11 11:17:53;;;;;;;1.97;1.60;;;7.80;97.10;;;;;;5059048;28;20193;-62
2022/12/11 11:20:26;;;;;;;2.10;1.57;;;7.80;97.00;;;;;;5048313;28;20201;-62
2022/12/11 11:22:59;;;;;;;2.20;1.73;;;7.80;96.90;;;;;;5063401;28;20216;-62
2022/12/11 11:25:29;;;;;;;1.33;1.20;;;7.80;96.90;;;;;;5060155;28;20628;-62
2022/12/11 11:28:02;;;;;;;1.40;1.30;;;7.80;97.00;;;;;;5066259;28;20206;-62
2022/12/11 11:30:38;;;;;;;1.60;1.20;;;7.90;97.10;;;;;;5066192;28;20213;-62
2022/12/11 11:33:12;;;;;;;2.10;1.57;;;7.90;97.00;;;;;;5066848;28;20980;-63
2022/12/11 11:35:50;;;;;;;1.90;1.80;;;7.90;96.80;;;;;;5070421;28;20211;-62
2022/12/11 11:38:19;;;;;;;4.00;1.70;;;7.90;96.70;;;;;;5060638;28;20197;-62
2022/12/11 11:41:16;;;;;;;1.70;1.60;;;7.90;96.70;;;;;;5046033;28;20194;-62
2022/12/11 11:43:45;;;;;;;1.60;1.50;;;7.80;96.70;;;;;;5064386;28;20493;-62
2022/12/11 11:46:32;;;;;;;3.37;1.80;;;7.90;96.70;;;;;;5067589;28;20197;-62
2022/12/11 11:49:14;;;;;;;3.43;2.10;;;7.90;96.70;;;;;;5065771;28;20203;-62
2022/12/11 11:51:52;;;;;;;1.83;1.73;;;7.90;96.60;;;;;;5064957;28;20762;-62
2022/12/11 11:54:30;;;;;;;2.40;2.03;;;7.80;96.60;;;;;;5062075;28;20269;-62
2022/12/11 11:57:00;;;;;;;2.03;1.77;;;7.80;96.60;;;;;;5061754;28;20549;-62
2022/12/11 11:59:32;;;;;;;1.37;1.27;;;7.80;96.70;;;;;;5063616;28;20241;-62
2022/12/11 12:02:00;;;;;;;1.60;1.50;;;7.80;96.60;;;;;;5061177;28;20637;-62
2022/12/11 12:04:33;;;;;;;1.10;1.00;;;7.70;96.20;;;;;;5062786;28;20209;-63
2022/12/11 12:07:23;;;;;;;1.00;0.83;;;7.70;96.10;;;;;;5066619;28;20196;-62
2022/12/11 12:10:09;;;;;;;4.03;1.17;;;7.60;96.10;;;;;;5065057;28;20194;-62
2022/12/11 12:12:53;;;;;;;3.07;1.37;;;7.60;95.90;;;;;;5053220;28;20611;-62
2022/12/11 12:15:27;;;;;;;1.33;1.20;;;7.50;95.80;;;;;;5069107;28;20187;-62
2022/12/11 12:18:01;;;;;;;1.50;1.37;;;7.50;95.80;;;;;;5063840;28;20200;-63
2022/12/11 12:20:47;;;;;;;2.10;1.47;;;7.50;96.00;;;;;;5064845;28;20198;-63
2022/12/11 12:23:50;;;;;;;2.20;1.40;;;7.50;96.10;;;;;;5047476;28;20206;-63
2022/12/11 12:26:28;;;;;;;1.13;1.03;;;7.50;96.10;;;;;;5027826;28;20248;-63
2022/12/11 12:29:09;;;;;;;1.50;1.40;;;7.60;96.10;;;;;;5063578;28;20203;-63
2022/12/11 12:31:40;;;;;;;1.33;1.23;;;7.60;96.10;;;;;;5065619;28;20221;-63
2022/12/11 12:34:34;;;;;;;1.10;1.00;;;7.60;96.10;;;;;;5043332;28;20208;-63
2022/12/11 12:37:20;;;;;;;3.20;1.63;;;7.60;96.00;;;;;;5047436;28;20199;-63
2022/12/11 12:40:09;;;;;;;3.63;1.63;;;7.60;96.10;;;;;;5066268;28;20388;-63
2022/12/11 12:42:45;;;;;;;6.47;1.70;;;7.60;96.20;;;;;;5045481;28;20233;-63
2022/12/11 12:45:15;;;;;;;1.87;1.47;;;7.70;96.20;;;;;;5069602;28;20272;-62
2022/12/11 12:47:45;;;;;;;1.60;1.50;;;7.70;96.30;;;;;;5054969;28;20263;-62
2022/12/11 12:50:22;;;;;;;1.70;1.60;;;7.60;96.20;;;;;;5058427;28;20264;-62
2022/12/11 12:52:52;;;;;;;1.67;1.57;;;7.60;96.20;;;;;;5059778;28;20216;-62
2022/12/11 12:55:23;;;;;;;2.23;1.90;;;7.50;96.30;;;;;;5060913;28;20263;-62
2022/12/11 12:57:59;;;;;;;1.70;1.60;;;7.50;96.50;;;;;;5067365;28;20182;-62
2022/12/11 13:00:32;;;;;;;1.20;1.10;;;7.40;96.40;;;;;;5064073;28;20239;-62
2022/12/11 13:03:20;;;;;;;2.57;1.17;;;7.40;96.40;;;;;;5061958;28;20267;-62
2022/12/11 13:06:03;;;;;;;1.77;1.47;;;7.30;96.50;;;;;;5071251;28;20216;-62
2022/12/11 13:08:47;;;;;;;1.83;1.60;;;7.20;96.60;;;;;;5061146;28;20217;-62
2022/12/11 13:11:17;;;;;;;1.70;1.50;;;7.20;96.90;;;;;;5062005;28;20195;-62
2022/12/11 13:14:00;;;;;;;2.00;1.27;;;7.10;97.00;;;;;;5063636;28;20224;-62
2022/12/11 13:16:41;;;;;;;1.37;1.20;;;7.10;97.30;;;;;;5065834;28;20328;-62
2022/12/11 13:19:31;;;;;;;1.70;1.50;;;7.10;97.40;;;;;;5063986;28;20644;-62
2022/12/11 13:22:13;;;;;;;1.67;1.30;;;7.10;97.30;;;;;;5062090;28;20198;-62